Time;durP1;ratioP1;P1;durP2;ratioP2;P2;SDS_P1;SDS_P2;PMS_P1;PMS_P2;Temp;Humidity;BMP_temperature;BMP_pressure;BME280_temperature;BME280_humidity;BME280_pressure;Samples;Min_cycle;Max_cycle;Signal;HPM_P1;HPM_P2
2022/12/03 00:00:22;;;;;;;23.57;15.03;;;0.70;99.90;;;;;;5088894;28;20862;-77
2022/12/03 00:02:49;;;;;;;26.50;15.53;;;0.70;99.90;;;;;;5096292;28;21135;-77
2022/12/03 00:05:16;;;;;;;27.80;14.37;;;0.70;99.90;;;;;;5098438;28;20463;-77
2022/12/03 00:07:43;;;;;;;23.00;12.70;;;0.70;99.90;;;;;;5089117;28;20793;-77
2022/12/03 00:10:12;;;;;;;27.03;16.43;;;0.70;99.90;;;;;;5087062;28;20485;-78
2022/12/03 00:12:39;;;;;;;24.93;14.37;;;0.70;99.90;;;;;;5100606;28;20470;-77
2022/12/03 00:15:08;;;;;;;29.97;14.33;;;0.70;99.90;;;;;;5087625;28;20484;-77
2022/12/03 00:17:35;;;;;;;30.50;16.17;;;0.80;99.90;;;;;;5088411;28;20471;-77
2022/12/03 00:20:02;;;;;;;29.33;15.70;;;0.70;99.90;;;;;;5096103;28;20473;-77
2022/12/03 00:22:29;;;;;;;22.13;12.97;;;0.70;99.90;;;;;;5096337;28;20550;-76
2022/12/03 00:24:56;;;;;;;26.70;15.47;;;0.70;99.90;;;;;;5100964;28;20457;-76
2022/12/03 00:27:24;;;;;;;26.90;17.33;;;0.70;99.90;;;;;;5101319;28;20480;-77
2022/12/03 00:29:51;;;;;;;26.33;15.50;;;0.70;99.90;;;;;;5088251;28;20535;-76
2022/12/03 00:32:18;;;;;;;28.10;16.93;;;0.70;99.90;;;;;;5089473;28;20502;-76
2022/12/03 00:34:45;;;;;;;29.13;14.67;;;0.70;99.90;;;;;;5088606;28;20520;-76
2022/12/03 00:37:12;;;;;;;26.97;17.47;;;0.70;99.90;;;;;;5091028;28;20540;-76
2022/12/03 00:39:39;;;;;;;30.53;14.73;;;0.70;99.90;;;;;;5091967;28;20956;-76
2022/12/03 00:42:06;;;;;;;33.80;17.50;;;0.70;99.90;;;;;;5097962;28;20514;-76
2022/12/03 00:44:34;;;;;;;23.97;15.10;;;0.70;99.90;;;;;;5094887;28;20461;-76
2022/12/03 00:47:01;;;;;;;29.23;14.57;;;0.70;99.90;;;;;;5087566;28;20517;-76
2022/12/03 00:49:28;;;;;;;35.93;18.40;;;0.70;99.90;;;;;;5086048;28;20511;-77
2022/12/03 00:51:55;;;;;;;29.57;17.20;;;0.70;99.90;;;;;;5093887;28;20493;-79
2022/12/03 00:54:22;;;;;;;37.10;18.73;;;0.70;99.90;;;;;;5090980;28;20474;-79
2022/12/03 00:56:49;;;;;;;27.63;15.87;;;0.70;99.90;;;;;;5098016;28;20479;-79
2022/12/03 00:59:15;;;;;;;31.03;16.90;;;0.70;99.90;;;;;;5092554;28;20570;-79
2022/12/03 01:01:44;;;;;;;33.20;16.97;;;0.70;99.90;;;;;;5087285;28;20447;-77
2022/12/03 01:04:11;;;;;;;26.43;15.00;;;0.70;99.90;;;;;;5098564;27;20917;-77
2022/12/03 01:06:38;;;;;;;29.17;16.27;;;0.70;99.90;;;;;;5090485;28;20529;-77
2022/12/03 01:09:05;;;;;;;29.73;16.50;;;0.70;99.90;;;;;;5086932;28;20917;-77
2022/12/03 01:11:37;;;;;;;30.50;16.47;;;0.70;99.90;;;;;;5097043;28;20685;-77
2022/12/03 01:14:05;;;;;;;31.92;16.13;;;0.70;99.90;;;;;;5096625;28;20938;-78
2022/12/03 01:16:31;;;;;;;29.60;16.20;;;0.70;99.90;;;;;;5097072;28;20243;-76
2022/12/03 01:19:00;;;;;;;26.00;15.60;;;0.70;99.90;;;;;;5101377;28;20495;-76
2022/12/03 01:21:27;;;;;;;33.37;16.10;;;0.70;99.90;;;;;;5097640;28;22180;-76
2022/12/03 01:23:54;;;;;;;32.00;15.70;;;0.70;99.90;;;;;;5097191;28;20470;-78
2022/12/03 01:26:21;;;;;;;25.90;15.83;;;0.70;99.90;;;;;;5089207;28;20486;-76
2022/12/03 01:28:48;;;;;;;28.73;15.50;;;0.70;99.90;;;;;;5096468;28;20494;-76
2022/12/03 01:34:02;;;;;;;30.80;17.67;;;0.70;99.90;;;;;;5091286;28;20840;-76
2022/12/03 01:36:29;;;;;;;28.87;15.33;;;0.70;99.90;;;;;;5090919;28;20454;-76
2022/12/03 01:38:56;;;;;;;27.40;15.70;;;0.70;99.90;;;;;;5095424;28;20486;-76
2022/12/03 01:41:24;;;;;;;21.00;12.97;;;0.60;99.90;;;;;;5089239;28;20566;-76
2022/12/03 01:43:51;;;;;;;29.10;16.97;;;0.60;99.90;;;;;;5103461;28;20457;-76
2022/12/03 01:46:21;;;;;;;26.97;16.20;;;0.60;99.90;;;;;;5096985;28;20513;-76
2022/12/03 01:48:49;;;;;;;26.17;13.17;;;0.70;99.90;;;;;;5087867;28;20488;-76
2022/12/03 01:51:17;;;;;;;26.77;13.87;;;0.70;99.90;;;;;;5091552;28;20542;-76
2022/12/03 01:53:45;;;;;;;23.50;14.50;;;0.60;99.90;;;;;;5090864;28;20594;-76
2022/12/03 01:56:14;;;;;;;26.13;14.57;;;0.70;99.90;;;;;;5086342;28;20923;-77
2022/12/03 01:58:42;;;;;;;23.37;12.80;;;0.70;99.90;;;;;;5096374;28;20514;-76
2022/12/03 02:01:13;;;;;;;25.67;15.40;;;0.70;99.90;;;;;;5091463;28;20550;-76
2022/12/03 02:03:40;;;;;;;23.80;13.83;;;0.70;99.90;;;;;;5095171;27;20494;-76
2022/12/03 02:06:14;;;;;;;26.47;12.97;;;0.70;99.90;;;;;;5099712;28;20520;-76
2022/12/03 02:08:42;;;;;;;22.43;13.73;;;0.70;99.90;;;;;;5088217;28;20493;-76
2022/12/03 02:11:16;;;;;;;22.77;13.83;;;0.70;99.90;;;;;;5089028;28;20483;-76
2022/12/03 02:13:44;;;;;;;24.43;13.07;;;0.60;99.90;;;;;;5106706;28;20558;-76
2022/12/03 02:16:11;;;;;;;19.50;11.80;;;0.60;99.90;;;;;;5090836;28;21538;-76
2022/12/03 02:18:38;;;;;;;22.83;14.40;;;0.60;99.90;;;;;;5105432;28;20590;-76
2022/12/03 02:21:13;;;;;;;26.80;13.53;;;0.70;99.90;;;;;;5097643;28;20469;-77
2022/12/03 02:23:48;;;;;;;26.37;13.47;;;0.70;99.90;;;;;;5090858;28;20494;-76
2022/12/03 02:26:17;;;;;;;21.20;13.33;;;0.70;99.90;;;;;;5090500;28;20475;-76
2022/12/03 02:28:44;;;;;;;26.63;14.93;;;0.60;99.90;;;;;;5098743;28;20574;-76
2022/12/03 02:31:11;;;;;;;17.83;10.60;;;0.60;99.90;;;;;;5089893;28;20451;-76
2022/12/03 02:33:38;;;;;;;19.43;12.90;;;0.60;99.90;;;;;;5104850;28;20454;-76
2022/12/03 02:36:06;;;;;;;24.77;12.47;;;0.60;99.90;;;;;;5097072;28;20967;-76
2022/12/03 02:38:35;;;;;;;20.20;11.43;;;0.60;99.90;;;;;;5104280;28;20465;-76
2022/12/03 02:41:07;;;;;;;23.02;12.75;;;0.60;99.90;;;;;;5096368;28;20498;-76
2022/12/03 02:43:34;;;;;;;19.70;12.07;;;0.60;99.90;;;;;;5105199;28;20291;-76
2022/12/03 02:46:04;;;;;;;22.53;12.37;;;0.60;99.90;;;;;;5096415;28;21184;-76
2022/12/03 02:48:34;;;;;;;19.17;13.27;;;0.50;99.90;;;;;;5095076;28;20466;-76
2022/12/03 02:51:05;;;;;;;22.60;13.07;;;0.60;99.90;;;;;;5100311;28;20446;-76
2022/12/03 02:53:36;;;;;;;24.53;14.20;;;0.50;99.90;;;;;;5099606;28;20510;-76
2022/12/03 02:56:05;;;;;;;17.90;10.33;;;0.60;99.90;;;;;;5095329;28;20650;-77
2022/12/03 02:58:33;;;;;;;26.33;12.53;;;0.50;99.90;;;;;;5094906;28;20482;-76
2022/12/03 03:01:04;;;;;;;21.80;11.87;;;0.60;99.90;;;;;;5106242;28;20478;-76
2022/12/03 03:03:32;;;;;;;26.77;14.10;;;0.60;99.90;;;;;;5110856;27;20442;-77
2022/12/03 03:06:02;;;;;;;18.37;11.63;;;0.60;99.90;;;;;;5092018;28;20481;-76
2022/12/03 03:08:31;;;;;;;23.03;12.30;;;0.60;99.90;;;;;;5089067;28;21056;-76
2022/12/03 03:11:00;;;;;;;19.87;12.20;;;0.60;99.90;;;;;;5101601;28;20458;-76
2022/12/03 03:13:29;;;;;;;22.47;12.30;;;0.60;99.90;;;;;;5098396;28;20454;-76
2022/12/03 03:15:57;;;;;;;23.40;12.10;;;0.60;99.90;;;;;;5092222;28;20512;-76
2022/12/03 03:18:25;;;;;;;25.83;12.43;;;0.60;99.90;;;;;;5089105;28;21133;-77
2022/12/03 03:20:52;;;;;;;21.60;9.80;;;0.60;99.90;;;;;;5098906;28;20462;-76
2022/12/03 03:23:21;;;;;;;19.83;11.18;;;0.50;99.90;;;;;;5096251;28;20540;-76
2022/12/03 03:25:54;;;;;;;22.15;11.88;;;0.50;99.90;;;;;;5093930;28;20649;-76
2022/12/03 03:28:21;;;;;;;24.23;12.80;;;0.50;99.90;;;;;;5083026;28;20260;-76
2022/12/03 03:30:48;;;;;;;21.60;11.80;;;0.50;99.90;;;;;;5089291;28;20978;-76
2022/12/03 03:33:16;;;;;;;20.25;12.13;;;0.50;99.90;;;;;;5089790;28;20496;-76
2022/12/03 03:35:46;;;;;;;22.37;11.00;;;0.50;99.90;;;;;;5097858;28;20670;-76
2022/12/03 03:38:13;;;;;;;20.63;10.80;;;0.40;99.90;;;;;;5091303;28;20478;-76
2022/12/03 03:40:41;;;;;;;21.13;11.63;;;0.50;99.90;;;;;;5095596;28;20756;-76
2022/12/03 03:43:08;;;;;;;23.43;12.10;;;0.50;99.90;;;;;;5093645;28;20500;-76
2022/12/03 03:45:34;;;;;;;19.33;10.83;;;0.50;99.90;;;;;;5091563;28;21025;-76
2022/12/03 03:48:02;;;;;;;21.53;11.03;;;0.50;99.90;;;;;;5101751;28;20579;-76
2022/12/03 03:50:31;;;;;;;22.50;11.53;;;0.50;99.90;;;;;;5090132;28;20643;-76
2022/12/03 03:53:01;;;;;;;18.80;9.90;;;0.50;99.90;;;;;;5092737;28;20450;-76
2022/12/03 03:55:28;;;;;;;19.60;10.27;;;0.50;99.90;;;;;;5085760;28;20473;-76
2022/12/03 03:57:55;;;;;;;17.83;10.00;;;0.60;99.90;;;;;;5092403;28;20861;-76
2022/12/03 04:00:23;;;;;;;16.80;9.67;;;0.50;99.90;;;;;;5093050;28;20557;-76
2022/12/03 04:02:50;;;;;;;20.03;13.00;;;0.60;99.90;;;;;;5103247;28;20481;-76
2022/12/03 04:05:19;;;;;;;20.00;12.80;;;0.60;99.90;;;;;;5086999;28;20547;-76
2022/12/03 04:07:46;;;;;;;20.70;11.30;;;0.60;99.90;;;;;;5090832;28;20510;-76
2022/12/03 04:13:00;;;;;;;23.60;13.53;;;0.60;99.90;;;;;;5101789;28;20445;-76
2022/12/03 04:15:28;;;;;;;23.40;12.97;;;0.60;99.90;;;;;;5094844;28;20518;-76
2022/12/03 04:20:39;;;;;;;24.10;11.73;;;0.60;99.90;;;;;;5097219;28;20491;-77
2022/12/03 04:23:06;;;;;;;17.80;11.40;;;0.60;99.90;;;;;;5099196;28;20501;-76
2022/12/03 04:35:41;;;;;;;17.07;11.13;;;0.50;99.90;;;;;;5091442;28;20250;-77
2022/12/03 04:36:36;;;;;;;22.53;11.70;;;0.50;99.90;;;;;;5090375;28;20476;-77
2022/12/03 04:39:03;;;;;;;19.50;11.20;;;0.50;99.90;;;;;;5100322;28;20520;-76
2022/12/03 04:41:31;;;;;;;18.07;11.80;;;0.50;99.90;;;;;;5103425;28;20496;-77
2022/12/03 04:46:43;;;;;;;23.20;12.90;;;0.60;99.90;;;;;;5099032;28;20485;-77
2022/12/03 04:49:10;;;;;;;24.43;10.73;;;0.60;99.90;;;;;;5093849;28;20498;-76
2022/12/03 04:51:37;;;;;;;25.07;12.77;;;0.60;99.90;;;;;;5102410;28;21181;-77
2022/12/03 04:54:04;;;;;;;20.90;11.40;;;0.60;99.90;;;;;;5105360;28;21034;-77
2022/12/03 04:56:32;;;;;;;20.57;11.80;;;0.70;99.90;;;;;;5093148;28;20498;-77
2022/12/03 04:58:59;;;;;;;24.77;13.40;;;0.60;99.90;;;;;;5103397;28;20490;-76
2022/12/03 05:01:26;;;;;;;25.87;14.17;;;0.60;99.90;;;;;;5106257;28;20473;-77
2022/12/03 05:03:53;;;;;;;23.00;12.63;;;0.60;99.90;;;;;;5102802;28;20465;-77
2022/12/03 05:06:20;;;;;;;20.70;13.40;;;0.70;99.90;;;;;;5106640;28;20470;-77
2022/12/03 05:08:47;;;;;;;21.73;12.67;;;0.60;99.90;;;;;;5100312;28;20497;-76
2022/12/03 05:11:14;;;;;;;23.57;13.33;;;0.60;99.90;;;;;;5105420;28;20654;-77
2022/12/03 05:13:42;;;;;;;19.50;11.37;;;0.60;99.90;;;;;;5103748;28;20469;-77
2022/12/03 05:16:10;;;;;;;19.70;12.17;;;0.60;99.90;;;;;;5095692;28;20477;-76
2022/12/03 05:18:36;;;;;;;23.77;12.07;;;0.50;99.90;;;;;;5087111;28;20930;-77
2022/12/03 05:21:04;;;;;;;21.93;12.90;;;0.60;99.90;;;;;;5097440;28;20982;-77
2022/12/03 05:23:30;;;;;;;24.00;13.00;;;0.60;99.90;;;;;;5086153;28;20455;-76
2022/12/03 05:25:57;;;;;;;16.67;10.23;;;0.50;99.90;;;;;;5092783;28;20488;-76
2022/12/03 05:28:24;;;;;;;25.30;12.97;;;0.50;99.90;;;;;;5093003;27;20526;-76
2022/12/03 05:31:08;;;;;;;21.30;11.17;;;0.40;99.90;;;;;;5069116;28;20446;-76
2022/12/03 05:33:35;;;;;;;22.33;12.00;;;0.40;99.90;;;;;;5086964;27;20519;-76
2022/12/03 05:36:02;;;;;;;26.20;12.40;;;0.50;99.90;;;;;;5094752;28;20514;-76
2022/12/03 05:38:29;;;;;;;20.98;11.55;;;0.50;99.90;;;;;;5100456;28;20453;-77
2022/12/03 05:40:56;;;;;;;23.20;12.50;;;0.50;99.90;;;;;;5096632;28;20277;-77
2022/12/03 05:43:22;;;;;;;20.23;11.25;;;0.50;99.90;;;;;;5099370;28;20908;-77
2022/12/03 05:45:49;;;;;;;22.27;11.53;;;0.50;99.90;;;;;;5104547;28;20228;-76
2022/12/03 05:48:18;;;;;;;18.93;11.10;;;0.50;99.90;;;;;;5091074;28;20498;-77
2022/12/03 05:50:45;;;;;;;21.93;13.50;;;0.50;99.90;;;;;;5088863;28;20548;-76
2022/12/03 05:53:16;;;;;;;22.97;12.20;;;0.50;99.90;;;;;;5086295;28;20458;-76
2022/12/03 05:55:43;;;;;;;22.37;11.47;;;0.60;99.90;;;;;;5098097;28;20523;-76
2022/12/03 05:58:11;;;;;;;17.87;11.63;;;0.60;99.90;;;;;;5093474;28;20575;-76
2022/12/03 06:00:38;;;;;;;23.10;12.97;;;0.60;99.90;;;;;;5091659;28;20912;-76
2022/12/03 06:03:06;;;;;;;20.77;12.40;;;0.60;99.90;;;;;;5087680;28;20575;-76
2022/12/03 06:05:34;;;;;;;24.10;12.83;;;0.70;99.90;;;;;;5091710;28;20477;-76
2022/12/03 06:08:02;;;;;;;25.60;12.23;;;0.70;99.90;;;;;;5085682;28;20579;-76
2022/12/03 06:10:29;;;;;;;25.80;12.57;;;0.60;99.90;;;;;;5092305;28;20528;-75
2022/12/03 06:12:56;;;;;;;23.73;15.37;;;0.60;99.90;;;;;;5086018;28;21223;-76
2022/12/03 06:15:23;;;;;;;25.48;13.50;;;0.60;99.90;;;;;;5086932;28;20459;-76
2022/12/03 06:17:51;;;;;;;22.73;12.40;;;0.60;99.90;;;;;;5089073;28;20232;-76
2022/12/03 06:20:19;;;;;;;22.53;13.13;;;0.60;99.90;;;;;;5099372;27;20444;-76
2022/12/03 06:22:48;;;;;;;23.63;13.93;;;0.70;99.90;;;;;;5095174;27;20807;-76
2022/12/03 06:25:16;;;;;;;22.07;14.07;;;0.70;99.90;;;;;;5090085;27;20909;-76
2022/12/03 06:27:44;;;;;;;20.40;10.77;;;0.70;99.90;;;;;;5095103;27;20511;-76
2022/12/03 06:30:13;;;;;;;19.52;12.15;;;0.60;99.90;;;;;;5109898;27;20462;-76
2022/12/03 06:32:40;;;;;;;20.47;12.53;;;0.70;99.90;;;;;;5102570;28;20214;-76
2022/12/03 06:35:08;;;;;;;23.87;12.27;;;0.70;99.90;;;;;;5093982;28;20465;-76
2022/12/03 06:37:35;;;;;;;23.60;12.90;;;0.70;99.90;;;;;;5091008;28;20462;-76
2022/12/03 06:40:04;;;;;;;21.23;13.43;;;0.80;99.90;;;;;;5099668;27;20514;-76
2022/12/03 06:42:31;;;;;;;27.07;13.03;;;0.80;99.90;;;;;;5093411;28;20930;-76
2022/12/03 06:44:58;;;;;;;25.27;13.83;;;0.70;99.90;;;;;;5096168;28;20494;-76
2022/12/03 06:47:25;;;;;;;23.80;14.37;;;0.70;99.90;;;;;;5093250;28;20997;-76
2022/12/03 06:49:51;;;;;;;17.83;12.43;;;0.70;99.90;;;;;;5095781;28;20526;-76
2022/12/03 06:52:18;;;;;;;24.50;14.43;;;0.70;99.90;;;;;;5094680;28;20464;-76
2022/12/03 06:54:45;;;;;;;20.97;12.60;;;0.70;99.90;;;;;;5091859;28;20496;-76
2022/12/03 06:57:14;;;;;;;25.13;13.03;;;0.70;99.90;;;;;;5089049;28;21205;-77
2022/12/03 06:59:40;;;;;;;20.73;10.87;;;0.70;99.90;;;;;;5088103;28;20516;-77
2022/12/03 07:02:07;;;;;;;22.80;11.33;;;0.70;99.90;;;;;;5083657;28;20471;-77
2022/12/03 07:04:34;;;;;;;19.07;10.27;;;0.70;99.90;;;;;;5088281;28;20490;-76
2022/12/03 07:07:01;;;;;;;23.50;11.13;;;0.70;99.90;;;;;;5086509;28;20610;-77
2022/12/03 07:09:28;;;;;;;40.97;26.00;;;0.70;99.90;;;;;;5088677;28;20486;-77
2022/12/03 07:11:55;;;;;;;25.50;16.00;;;0.70;99.90;;;;;;5087474;28;20550;-77
2022/12/03 07:14:23;;;;;;;23.23;14.87;;;0.80;99.90;;;;;;5085190;28;20811;-77
2022/12/03 07:16:50;;;;;;;16.00;12.13;;;0.70;99.90;;;;;;5088480;28;20512;-77
2022/12/03 07:19:17;;;;;;;21.27;15.23;;;0.80;99.90;;;;;;5088534;28;20974;-77
2022/12/03 07:21:44;;;;;;;24.43;17.13;;;0.80;99.90;;;;;;5090529;28;20512;-77
2022/12/03 07:24:12;;;;;;;23.93;12.97;;;0.80;99.90;;;;;;5087793;28;20544;-77
2022/12/03 07:26:39;;;;;;;23.23;12.77;;;0.80;99.90;;;;;;5087082;28;20488;-77
2022/12/03 07:29:06;;;;;;;14.83;8.50;;;0.80;99.90;;;;;;5091775;27;20574;-77
2022/12/03 07:31:34;;;;;;;22.43;12.73;;;0.80;99.90;;;;;;5089844;28;20929;-78
2022/12/03 07:34:01;;;;;;;26.03;13.23;;;0.80;99.90;;;;;;5095323;28;20508;-78
2022/12/03 07:36:28;;;;;;;19.60;12.33;;;0.80;99.90;;;;;;5092360;28;20527;-78
2022/12/03 07:38:55;;;;;;;23.87;15.73;;;0.80;99.90;;;;;;5090396;28;20471;-77
2022/12/03 07:41:22;;;;;;;22.60;14.23;;;0.90;99.90;;;;;;5087715;28;20548;-78
2022/12/03 07:43:48;;;;;;;32.30;16.07;;;0.90;99.90;;;;;;5097429;28;20959;-78
2022/12/03 07:46:15;;;;;;;26.50;16.30;;;0.80;99.90;;;;;;5098666;28;20481;-77
2022/12/03 07:48:44;;;;;;;44.10;27.27;;;0.90;99.90;;;;;;5085714;28;21305;-77
2022/12/03 07:51:11;;;;;;;26.47;15.83;;;0.90;99.90;;;;;;5084166;28;20525;-77
2022/12/03 07:53:38;;;;;;;16.33;10.87;;;0.90;99.90;;;;;;5083083;28;20925;-77
2022/12/03 07:56:05;;;;;;;25.30;16.07;;;0.90;99.90;;;;;;5087224;28;20562;-77
2022/12/03 07:58:32;;;;;;;26.00;17.30;;;0.90;99.90;;;;;;5088914;28;21233;-78
2022/12/03 08:00:59;;;;;;;21.37;13.57;;;0.90;99.90;;;;;;5085980;28;20562;-78
2022/12/03 08:03:26;;;;;;;28.10;13.43;;;0.90;99.90;;;;;;5087589;28;20521;-79
2022/12/03 08:05:54;;;;;;;21.20;13.47;;;0.90;99.90;;;;;;5085420;28;20869;-78
2022/12/03 08:08:21;;;;;;;21.50;15.40;;;0.90;99.90;;;;;;5087578;28;21071;-78
2022/12/03 08:10:48;;;;;;;22.00;14.70;;;1.00;99.90;;;;;;5087076;28;20465;-78
2022/12/03 08:13:17;;;;;;;21.43;12.57;;;1.00;99.90;;;;;;5095853;28;20858;-78
2022/12/03 08:15:44;;;;;;;17.83;10.87;;;0.90;99.90;;;;;;5097786;28;20501;-78
2022/12/03 08:18:15;;;;;;;22.77;13.00;;;0.90;99.90;;;;;;5091214;28;20958;-77
2022/12/03 08:20:43;;;;;;;22.83;13.93;;;0.90;99.90;;;;;;5086876;28;20961;-78
2022/12/03 08:23:16;;;;;;;18.47;11.20;;;1.00;99.90;;;;;;5088814;28;20486;-78
2022/12/03 08:25:44;;;;;;;25.87;11.57;;;1.00;99.90;;;;;;5092977;28;20843;-78
2022/12/03 08:28:17;;;;;;;17.83;10.37;;;1.00;99.90;;;;;;5087243;28;20899;-78
2022/12/03 08:30:47;;;;;;;21.73;13.03;;;1.00;99.90;;;;;;5088501;28;20462;-78
2022/12/03 08:33:25;;;;;;;20.17;13.17;;;1.00;99.90;;;;;;5086583;28;20486;-78
2022/12/03 08:35:52;;;;;;;41.03;23.80;;;1.00;99.90;;;;;;5090522;28;20501;-78
2022/12/03 08:38:23;;;;;;;24.90;13.73;;;1.00;99.90;;;;;;5090739;28;20939;-78
2022/12/03 08:40:54;;;;;;;21.87;14.90;;;1.00;99.90;;;;;;5086671;28;20558;-78
2022/12/03 08:43:23;;;;;;;29.60;18.40;;;1.10;99.90;;;;;;5086764;28;20455;-78
2022/12/03 08:45:50;;;;;;;46.63;25.13;;;1.00;99.90;;;;;;5087713;28;20500;-78
2022/12/03 08:48:28;;;;;;;30.77;17.70;;;1.00;99.90;;;;;;5091653;28;20541;-78
2022/12/03 08:50:56;;;;;;;27.87;16.03;;;1.10;99.90;;;;;;5085560;28;21019;-78
2022/12/03 08:53:34;;;;;;;51.47;28.17;;;1.10;99.90;;;;;;5088950;28;20489;-78
2022/12/03 08:56:03;;;;;;;46.10;26.90;;;1.10;99.90;;;;;;5087216;28;20469;-77
2022/12/03 08:58:41;;;;;;;27.30;17.63;;;1.10;99.90;;;;;;5086005;28;20522;-77
2022/12/03 09:01:31;;;;;;;25.90;16.33;;;1.10;99.90;;;;;;5088902;28;20552;-77
2022/12/03 09:04:14;;;;;;;25.73;20.42;;;1.10;99.90;;;;;;5091891;28;20596;-77
2022/12/03 09:06:41;;;;;;;24.23;16.40;;;1.10;99.90;;;;;;5088880;28;20276;-75
2022/12/03 09:09:09;;;;;;;23.47;14.33;;;1.20;99.90;;;;;;5094125;28;20520;-77
2022/12/03 09:11:36;;;;;;;21.15;13.23;;;1.20;99.90;;;;;;5090874;27;20507;-77
2022/12/03 09:14:03;;;;;;;23.97;13.87;;;1.20;99.90;;;;;;5086170;27;20216;-77
2022/12/03 09:16:30;;;;;;;19.33;11.67;;;1.20;99.90;;;;;;5084666;28;20550;-78
2022/12/03 09:18:57;;;;;;;18.37;10.50;;;1.20;99.90;;;;;;5088093;28;21199;-78
2022/12/03 09:21:24;;;;;;;17.60;10.67;;;1.30;99.90;;;;;;5084587;27;20463;-78
2022/12/03 09:23:51;;;;;;;16.27;9.10;;;1.30;99.90;;;;;;5092116;27;21056;-78
2022/12/03 09:26:20;;;;;;;19.60;9.87;;;1.30;99.90;;;;;;5087685;28;20547;-79
2022/12/03 09:28:47;;;;;;;16.33;11.43;;;1.40;99.90;;;;;;5083343;27;20901;-79
2022/12/03 09:31:14;;;;;;;17.80;10.87;;;1.30;99.90;;;;;;5084606;28;20512;-79
2022/12/03 09:33:41;;;;;;;19.27;10.83;;;1.40;99.90;;;;;;5086201;28;20993;-78
2022/12/03 09:36:08;;;;;;;13.53;9.90;;;1.40;99.90;;;;;;5085657;27;20461;-79
2022/12/03 09:38:35;;;;;;;17.13;9.63;;;1.50;99.90;;;;;;5084749;28;20470;-78
2022/12/03 09:41:02;;;;;;;17.87;11.50;;;1.50;99.90;;;;;;5086630;28;20799;-78
2022/12/03 09:43:34;;;;;;;14.27;9.73;;;1.50;99.90;;;;;;5084157;28;20447;-79
2022/12/03 09:46:01;;;;;;;13.53;10.13;;;1.60;99.90;;;;;;5085579;27;20459;-78
2022/12/03 09:48:28;;;;;;;13.40;10.13;;;1.60;99.90;;;;;;5081082;28;20993;-78
2022/12/03 09:50:55;;;;;;;16.37;11.10;;;1.60;99.90;;;;;;5086160;28;20491;-77
2022/12/03 09:53:25;;;;;;;24.13;11.50;;;1.60;99.90;;;;;;5084040;28;20501;-77
2022/12/03 09:55:52;;;;;;;14.40;9.90;;;1.70;99.90;;;;;;5086753;28;20704;-77
2022/12/03 09:58:21;;;;;;;17.73;11.80;;;1.70;99.90;;;;;;5085496;28;20545;-77
2022/12/03 10:00:51;;;;;;;14.23;10.97;;;1.70;99.90;;;;;;5087176;28;20458;-77
2022/12/03 10:03:22;;;;;;;15.30;10.13;;;1.70;99.90;;;;;;5087318;28;20459;-77
2022/12/03 10:05:50;;;;;;;18.43;11.67;;;1.70;99.90;;;;;;5088017;27;20474;-77
2022/12/03 10:08:21;;;;;;;16.70;9.90;;;1.70;99.90;;;;;;5091408;27;20596;-77
2022/12/03 10:10:51;;;;;;;18.00;11.97;;;1.70;99.90;;;;;;5094504;28;20457;-77
2022/12/03 10:13:24;;;;;;;15.17;9.50;;;1.70;99.90;;;;;;5088620;28;21112;-77
2022/12/03 10:15:55;;;;;;;14.90;8.80;;;1.70;99.90;;;;;;5087690;28;20509;-77
2022/12/03 10:18:24;;;;;;;23.43;11.77;;;1.70;99.90;;;;;;5092335;28;20478;-77
2022/12/03 10:20:52;;;;;;;17.10;10.30;;;1.80;99.90;;;;;;5088235;28;20507;-77
2022/12/03 10:23:21;;;;;;;17.87;10.97;;;1.80;99.90;;;;;;5090937;27;20862;-77
2022/12/03 10:25:55;;;;;;;15.53;10.47;;;1.80;99.90;;;;;;5087720;28;20467;-77
2022/12/03 10:28:31;;;;;;;14.77;10.70;;;1.80;99.90;;;;;;5086403;28;20556;-77
2022/12/03 10:31:00;;;;;;;14.33;9.10;;;1.90;99.90;;;;;;5088477;28;20882;-77
2022/12/03 10:33:32;;;;;;;16.53;10.47;;;1.80;99.90;;;;;;5087099;28;20543;-78
2022/12/03 10:36:16;;;;;;;14.27;8.87;;;1.90;99.90;;;;;;5082480;28;20976;-77
2022/12/03 10:38:43;;;;;;;19.33;11.17;;;1.80;99.90;;;;;;5086001;28;20518;-77
2022/12/03 10:41:31;;;;;;;15.20;9.37;;;2.00;99.90;;;;;;5092294;28;20457;-77
2022/12/03 10:44:12;;;;;;;15.30;9.80;;;1.90;99.90;;;;;;5091934;27;21063;-77
2022/12/03 10:46:40;;;;;;;16.10;10.00;;;1.80;99.90;;;;;;5089796;28;21221;-77
2022/12/03 10:49:09;;;;;;;16.20;9.87;;;1.80;99.90;;;;;;5085857;28;20486;-77
2022/12/03 10:51:38;;;;;;;11.20;9.87;;;1.80;99.90;;;;;;5088188;28;21151;-77
2022/12/03 10:54:14;;;;;;;15.50;10.17;;;1.80;99.90;;;;;;5084180;28;20467;-77
2022/12/03 10:56:41;;;;;;;16.73;9.57;;;1.80;99.90;;;;;;5083840;28;20466;-77
2022/12/03 10:59:13;;;;;;;16.77;9.70;;;1.80;99.90;;;;;;5087474;28;20587;-77
2022/12/03 11:01:41;;;;;;;16.40;10.00;;;1.70;99.90;;;;;;5082532;28;20539;-77
2022/12/03 11:04:19;;;;;;;13.93;9.60;;;1.70;99.90;;;;;;5082725;28;20542;-78
2022/12/03 11:06:46;;;;;;;16.90;10.80;;;1.70;99.90;;;;;;5085652;28;20506;-77
2022/12/03 11:09:19;;;;;;;19.20;11.30;;;1.80;99.90;;;;;;5089124;28;22226;-77
2022/12/03 11:11:46;;;;;;;17.23;10.60;;;1.90;99.90;;;;;;5091701;28;20489;-77
2022/12/03 11:14:13;;;;;;;15.23;9.50;;;2.00;99.90;;;;;;5085688;28;21033;-77
2022/12/03 11:17:08;;;;;;;13.80;9.53;;;2.00;99.90;;;;;;5078918;28;20558;-77
2022/12/03 11:19:44;;;;;;;18.23;11.37;;;2.00;99.90;;;;;;5084908;28;20927;-77
2022/12/03 11:22:26;;;;;;;13.83;9.50;;;2.10;99.90;;;;;;5084187;28;21016;-78
2022/12/03 11:25:26;;;;;;;15.70;10.40;;;2.00;99.90;;;;;;5080613;28;21220;-77
2022/12/03 11:28:30;;;;;;;16.07;10.63;;;2.10;99.90;;;;;;5082218;28;20486;-78
2022/12/03 11:31:01;;;;;;;17.90;11.00;;;2.10;99.90;;;;;;5085593;28;20529;-77
2022/12/03 11:33:30;;;;;;;13.70;9.93;;;2.20;99.90;;;;;;5086062;28;20554;-77
2022/12/03 11:36:14;;;;;;;13.30;11.17;;;2.30;99.90;;;;;;5081454;28;20462;-78
2022/12/03 11:38:47;;;;;;;15.60;10.60;;;2.30;99.90;;;;;;5082979;28;20458;-77
2022/12/03 11:41:16;;;;;;;17.10;10.97;;;2.30;99.90;;;;;;5084192;28;20489;-77
2022/12/03 11:44:30;;;;;;;14.80;10.40;;;2.30;99.90;;;;;;5082540;28;20792;-77
2022/12/03 11:47:09;;;;;;;16.10;9.97;;;2.20;99.90;;;;;;5084898;28;20552;-78
2022/12/03 11:49:48;;;;;;;9.83;7.77;;;2.20;99.90;;;;;;5086732;28;20485;-77
2022/12/03 11:52:25;;;;;;;15.23;9.67;;;2.30;99.90;;;;;;5088955;28;20462;-77
2022/12/03 11:54:55;;;;;;;14.97;10.33;;;2.40;99.90;;;;;;5093177;28;20476;-77
2022/12/03 11:57:29;;;;;;;15.60;9.80;;;2.50;99.90;;;;;;5093439;27;20492;-76
2022/12/03 12:00:03;;;;;;;19.93;12.30;;;2.40;99.90;;;;;;5094583;28;20551;-76
2022/12/03 12:02:30;;;;;;;11.17;8.60;;;2.30;99.90;;;;;;5089616;28;20458;-76
2022/12/03 12:05:24;;;;;;;12.00;9.10;;;2.30;99.90;;;;;;5086761;28;20545;-76
2022/12/03 12:07:52;;;;;;;17.40;9.30;;;2.30;99.90;;;;;;5087127;28;20458;-76
2022/12/03 12:10:37;;;;;;;13.00;9.13;;;2.30;99.90;;;;;;5087006;28;20569;-76
2022/12/03 12:13:04;;;;;;;14.20;10.13;;;2.30;99.90;;;;;;5089329;28;20554;-76
2022/12/03 12:15:44;;;;;;;14.93;9.73;;;2.40;99.90;;;;;;5087708;28;20467;-77
2022/12/03 12:18:36;;;;;;;18.93;11.53;;;2.40;99.90;;;;;;5087999;27;20469;-76
2022/12/03 12:21:43;;;;;;;15.77;9.43;;;2.40;99.90;;;;;;5088591;28;20562;-76
2022/12/03 12:24:37;;;;;;;11.07;8.00;;;2.50;99.90;;;;;;5090948;27;20466;-76
2022/12/03 12:27:07;;;;;;;15.90;9.20;;;2.40;99.90;;;;;;5088828;28;20471;-76
2022/12/03 12:29:35;;;;;;;14.40;9.10;;;2.40;99.90;;;;;;5099204;28;21147;-76
2022/12/03 12:32:11;;;;;;;14.80;9.27;;;2.40;99.90;;;;;;5090750;28;20490;-76
2022/12/03 12:34:39;;;;;;;15.20;10.10;;;2.40;99.90;;;;;;5101825;27;20461;-76
2022/12/03 12:37:11;;;;;;;13.03;9.67;;;2.40;99.90;;;;;;5090267;28;20547;-78
2022/12/03 12:39:38;;;;;;;13.20;10.00;;;2.40;99.90;;;;;;5086877;28;20586;-78
2022/12/03 12:42:30;;;;;;;15.33;9.80;;;2.40;99.90;;;;;;5089005;28;20512;-76
2022/12/03 12:45:08;;;;;;;14.83;9.57;;;2.40;99.90;;;;;;5091782;27;20529;-76
2022/12/03 12:47:36;;;;;;;15.50;10.00;;;2.40;99.90;;;;;;5089979;28;20489;-76
2022/12/03 12:50:09;;;;;;;15.73;10.50;;;2.50;99.90;;;;;;5095845;28;20525;-76
2022/12/03 12:52:42;;;;;;;13.77;9.63;;;2.50;99.90;;;;;;5088652;28;20914;-76
2022/12/03 12:55:11;;;;;;;18.33;10.90;;;2.50;99.90;;;;;;5100054;28;20477;-76
2022/12/03 12:57:38;;;;;;;15.60;10.20;;;2.50;99.90;;;;;;5089346;28;20465;-78
2022/12/03 13:00:06;;;;;;;12.80;9.23;;;2.50;99.90;;;;;;5091863;28;20881;-77
2022/12/03 13:02:43;;;;;;;16.00;9.93;;;2.50;99.90;;;;;;5092899;28;20455;-80
2022/12/03 13:05:12;;;;;;;12.00;9.17;;;2.60;99.90;;;;;;5093276;28;20466;-77
2022/12/03 13:07:42;;;;;;;13.30;10.40;;;2.50;99.90;;;;;;5090174;28;20471;-79
2022/12/03 13:10:36;;;;;;;14.43;10.40;;;2.60;99.90;;;;;;5093002;28;20488;-79